sensor_id;sensor_type;location;lat;lon;timestamp;P1;durP1;ratioP1;P2;durP2;ratioP2
57101;SDS011;42982;54.558;18.508;2022-08-11T18:06:53;1.65;;;1.00;;
57101;SDS011;42982;54.558;18.508;2022-08-11T18:08:00;2.45;;;1.10;;
57101;SDS011;42982;54.558;18.508;2022-08-11T18:09:26;4.82;;;1.50;;
57101;SDS011;42982;54.558;18.508;2022-08-11T18:10:46;2.90;;;1.10;;
57101;SDS011;42982;54.558;18.508;2022-08-11T18:12:07;3.65;;;1.38;;
57101;SDS011;42982;54.558;18.508;2022-08-11T18:13:34;4.60;;;2.17;;
57101;SDS011;42982;54.558;18.508;2022-08-11T18:14:59;5.15;;;1.90;;
57101;SDS011;42982;54.558;18.508;2022-08-11T18:16:20;3.05;;;1.60;;
57101;SDS011;42982;54.558;18.508;2022-08-11T18:17:46;7.00;;;2.03;;
57101;SDS011;42982;54.558;18.508;2022-08-11T18:19:11;8.23;;;3.00;;
57101;SDS011;42982;54.558;18.508;2022-08-11T18:20:35;9.85;;;3.13;;
57101;SDS011;42982;54.558;18.508;2022-08-11T18:22:04;5.00;;;2.20;;
57101;SDS011;42982;54.558;18.508;2022-08-11T18:23:45;5.22;;;2.13;;
57101;SDS011;42982;54.558;18.508;2022-08-11T18:25:14;2.70;;;1.50;;
57101;SDS011;42982;54.558;18.508;2022-08-11T18:26:39;3.28;;;1.80;;
57101;SDS011;42982;54.558;18.508;2022-08-11T18:28:06;1.70;;;1.40;;
57101;SDS011;42982;54.558;18.508;2022-08-11T18:29:32;1.77;;;1.40;;
57101;SDS011;42982;54.558;18.508;2022-08-11T18:30:58;5.00;;;1.70;;
57101;SDS011;42982;54.558;18.508;2022-08-11T18:32:26;4.43;;;1.60;;
57101;SDS011;42982;54.558;18.508;2022-08-11T18:33:52;4.38;;;2.13;;
57101;SDS011;42982;54.558;18.508;2022-08-11T18:35:15;3.55;;;2.28;;
57101;SDS011;42982;54.558;18.508;2022-08-11T18:36:44;3.20;;;1.52;;
57101;SDS011;42982;54.558;18.508;2022-08-11T18:38:11;6.82;;;2.13;;
57101;SDS011;42982;54.558;18.508;2022-08-11T18:39:41;1.85;;;1.40;;
57101;SDS011;42982;54.558;18.508;2022-08-11T18:41:06;2.35;;;1.30;;
57101;SDS011;42982;54.558;18.508;2022-08-11T18:42:28;2.00;;;1.30;;
57101;SDS011;42982;54.558;18.508;2022-08-11T18:43:54;3.45;;;1.77;;
57101;SDS011;42982;54.558;18.508;2022-08-11T18:45:21;3.45;;;1.50;;
57101;SDS011;42982;54.558;18.508;2022-08-11T18:46:43;4.03;;;1.60;;
57101;SDS011;42982;54.558;18.508;2022-08-11T18:48:09;2.85;;;1.48;;
57101;SDS011;42982;54.558;18.508;2022-08-11T18:49:37;4.97;;;2.00;;
57101;SDS011;42982;54.558;18.508;2022-08-11T18:51:00;2.85;;;1.40;;
57101;SDS011;42982;54.558;18.508;2022-08-11T18:52:28;1.77;;;1.40;;
57101;SDS011;42982;54.558;18.508;2022-08-11T18:53:54;3.08;;;1.67;;
57101;SDS011;42982;54.558;18.508;2022-08-11T18:55:23;6.70;;;1.70;;
57101;SDS011;42982;54.558;18.508;2022-08-11T18:56:44;4.72;;;1.92;;
57101;SDS011;42982;54.558;18.508;2022-08-11T18:58:06;4.63;;;1.60;;
57101;SDS011;42982;54.558;18.508;2022-08-11T18:59:28;4.45;;;1.77;;
57101;SDS011;42982;54.558;18.508;2022-08-11T19:00:55;2.38;;;1.50;;
57101;SDS011;42982;54.558;18.508;2022-08-11T19:02:18;2.92;;;1.73;;
57101;SDS011;42982;54.558;18.508;2022-08-11T19:03:41;2.25;;;1.42;;
57101;SDS011;42982;54.558;18.508;2022-08-11T19:05:05;3.55;;;1.60;;
57101;SDS011;42982;54.558;18.508;2022-08-11T19:06:29;2.47;;;1.60;;
57101;SDS011;42982;54.558;18.508;2022-08-11T19:07:51;5.20;;;1.63;;
57101;SDS011;42982;54.558;18.508;2022-08-11T19:09:20;1.67;;;1.15;;
57101;SDS011;42982;54.558;18.508;2022-08-11T19:10:44;2.80;;;1.63;;
57101;SDS011;42982;54.558;18.508;2022-08-11T19:12:09;3.75;;;1.98;;
57101;SDS011;42982;54.558;18.508;2022-08-11T19:13:33;3.42;;;2.08;;
57101;SDS011;42982;54.558;18.508;2022-08-11T19:14:58;5.05;;;3.08;;
57101;SDS011;42982;54.558;18.508;2022-08-11T19:16:23;5.93;;;3.13;;
57101;SDS011;42982;54.558;18.508;2022-08-11T19:17:45;6.43;;;3.15;;
57101;SDS011;42982;54.558;18.508;2022-08-11T19:19:09;6.85;;;3.20;;
57101;SDS011;42982;54.558;18.508;2022-08-11T19:20:35;12.15;;;4.13;;
57101;SDS011;42982;54.558;18.508;2022-08-11T19:21:57;6.93;;;2.80;;
57101;SDS011;42982;54.558;18.508;2022-08-11T19:23:26;5.78;;;2.85;;
57101;SDS011;42982;54.558;18.508;2022-08-11T19:25:00;5.90;;;2.92;;
57101;SDS011;42982;54.558;18.508;2022-08-11T19:26:22;6.80;;;2.30;;
57101;SDS011;42982;54.558;18.508;2022-08-11T19:27:44;7.18;;;2.45;;
57101;SDS011;42982;54.558;18.508;2022-08-11T19:29:07;6.78;;;2.08;;
57101;SDS011;42982;54.558;18.508;2022-08-11T19:30:33;3.47;;;1.70;;
57101;SDS011;42982;54.558;18.508;2022-08-11T19:31:55;4.40;;;2.20;;
57101;SDS011;42982;54.558;18.508;2022-08-11T19:33:18;4.20;;;2.30;;
57101;SDS011;42982;54.558;18.508;2022-08-11T19:34:43;4.07;;;2.00;;
57101;SDS011;42982;54.558;18.508;2022-08-11T19:36:04;4.30;;;1.70;;
57101;SDS011;42982;54.558;18.508;2022-08-11T19:37:29;3.70;;;1.80;;
57101;SDS011;42982;54.558;18.508;2022-08-11T19:38:52;16.60;;;2.78;;
57101;SDS011;42982;54.558;18.508;2022-08-11T19:40:13;9.13;;;2.45;;
57101;SDS011;42982;54.558;18.508;2022-08-11T19:41:38;5.93;;;1.95;;
57101;SDS011;42982;54.558;18.508;2022-08-11T19:43:01;2.45;;;1.35;;
57101;SDS011;42982;54.558;18.508;2022-08-11T19:44:23;5.30;;;1.60;;
57101;SDS011;42982;54.558;18.508;2022-08-11T19:45:45;6.90;;;2.97;;
57101;SDS011;42982;54.558;18.508;2022-08-11T19:47:09;2.65;;;1.70;;
57101;SDS011;42982;54.558;18.508;2022-08-11T19:48:29;1.88;;;1.23;;
57101;SDS011;42982;54.558;18.508;2022-08-11T19:49:51;2.40;;;1.30;;
57101;SDS011;42982;54.558;18.508;2022-08-11T19:51:13;5.80;;;1.40;;
57101;SDS011;42982;54.558;18.508;2022-08-11T19:52:37;2.00;;;1.20;;
57101;SDS011;42982;54.558;18.508;2022-08-11T19:54:02;1.90;;;1.52;;
57101;SDS011;42982;54.558;18.508;2022-08-11T19:55:26;1.35;;;1.10;;
57101;SDS011;42982;54.558;18.508;2022-08-11T19:56:47;4.25;;;1.20;;
57101;SDS011;42982;54.558;18.508;2022-08-11T19:58:10;1.67;;;1.10;;
57101;SDS011;42982;54.558;18.508;2022-08-11T19:59:32;2.67;;;1.23;;
57101;SDS011;42982;54.558;18.508;2022-08-11T20:00:55;2.20;;;1.25;;
57101;SDS011;42982;54.558;18.508;2022-08-11T20:02:16;2.47;;;1.40;;
57101;SDS011;42982;54.558;18.508;2022-08-11T20:03:41;2.97;;;1.20;;
57101;SDS011;42982;54.558;18.508;2022-08-11T20:05:02;1.60;;;1.10;;
57101;SDS011;42982;54.558;18.508;2022-08-11T20:06:24;2.35;;;1.20;;
57101;SDS011;42982;54.558;18.508;2022-08-11T20:07:46;3.63;;;0.98;;
57101;SDS011;42982;54.558;18.508;2022-08-11T20:09:08;1.17;;;1.00;;
57101;SDS011;42982;54.558;18.508;2022-08-11T20:10:30;1.63;;;1.15;;
57101;SDS011;42982;54.558;18.508;2022-08-11T20:11:54;1.75;;;0.95;;
57101;SDS011;42982;54.558;18.508;2022-08-11T20:13:17;1.20;;;1.10;;
57101;SDS011;42982;54.558;18.508;2022-08-11T20:14:43;1.52;;;0.90;;
57101;SDS011;42982;54.558;18.508;2022-08-11T20:16:13;1.45;;;1.10;;
57101;SDS011;42982;54.558;18.508;2022-08-11T20:17:36;3.85;;;1.40;;
57101;SDS011;42982;54.558;18.508;2022-08-11T20:18:58;2.40;;;1.10;;
57101;SDS011;42982;54.558;18.508;2022-08-11T20:20:21;2.75;;;1.00;;
57101;SDS011;42982;54.558;18.508;2022-08-11T20:21:42;1.10;;;0.93;;
57101;SDS011;42982;54.558;18.508;2022-08-11T20:23:07;1.42;;;0.90;;
57101;SDS011;42982;54.558;18.508;2022-08-11T20:24:31;1.63;;;1.00;;
57101;SDS011;42982;54.558;18.508;2022-08-11T20:25:55;1.48;;;0.98;;
57101;SDS011;42982;54.558;18.508;2022-08-11T20:27:20;3.38;;;0.98;;
57101;SDS011;42982;54.558;18.508;2022-08-11T20:28:45;2.00;;;1.15;;
57101;SDS011;42982;54.558;18.508;2022-08-11T20:30:07;2.65;;;1.10;;
57101;SDS011;42982;54.558;18.508;2022-08-11T20:31:30;4.78;;;1.10;;
57101;SDS011;42982;54.558;18.508;2022-08-11T20:32:50;1.38;;;0.82;;
57101;SDS011;42982;54.558;18.508;2022-08-11T20:34:14;1.17;;;0.98;;
57101;SDS011;42982;54.558;18.508;2022-08-11T20:35:38;2.20;;;1.10;;
57101;SDS011;42982;54.558;18.508;2022-08-11T20:37:02;1.65;;;0.90;;
57101;SDS011;42982;54.558;18.508;2022-08-11T20:38:24;1.45;;;0.90;;
57101;SDS011;42982;54.558;18.508;2022-08-11T20:39:49;0.93;;;0.80;;
57101;SDS011;42982;54.558;18.508;2022-08-11T20:41:11;1.25;;;0.90;;
57101;SDS011;42982;54.558;18.508;2022-08-11T20:42:32;1.77;;;1.02;;
57101;SDS011;42982;54.558;18.508;2022-08-11T20:43:57;1.80;;;1.00;;
57101;SDS011;42982;54.558;18.508;2022-08-11T20:45:21;1.05;;;0.80;;
57101;SDS011;42982;54.558;18.508;2022-08-11T20:46:43;3.38;;;1.00;;
57101;SDS011;42982;54.558;18.508;2022-08-11T20:48:05;12.32;;;1.63;;
57101;SDS011;42982;54.558;18.508;2022-08-11T20:49:27;5.38;;;1.58;;
57101;SDS011;42982;54.558;18.508;2022-08-11T20:50:50;3.25;;;1.15;;
57101;SDS011;42982;54.558;18.508;2022-08-11T20:52:18;3.58;;;1.70;;
57101;SDS011;42982;54.558;18.508;2022-08-11T20:53:39;2.45;;;1.20;;
57101;SDS011;42982;54.558;18.508;2022-08-11T20:55:01;4.22;;;1.30;;
57101;SDS011;42982;54.558;18.508;2022-08-11T20:56:23;3.30;;;1.42;;
57101;SDS011;42982;54.558;18.508;2022-08-11T20:57:46;2.45;;;1.25;;
57101;SDS011;42982;54.558;18.508;2022-08-11T20:59:08;3.08;;;1.27;;
57101;SDS011;42982;54.558;18.508;2022-08-11T21:00:34;5.63;;;1.63;;
57101;SDS011;42982;54.558;18.508;2022-08-11T21:01:58;5.03;;;1.55;;
57101;SDS011;42982;54.558;18.508;2022-08-11T21:03:23;5.78;;;1.90;;
57101;SDS011;42982;54.558;18.508;2022-08-11T21:04:43;6.35;;;1.65;;
57101;SDS011;42982;54.558;18.508;2022-08-11T21:06:04;5.22;;;2.00;;
57101;SDS011;42982;54.558;18.508;2022-08-11T21:07:31;5.75;;;1.98;;
57101;SDS011;42982;54.558;18.508;2022-08-11T21:08:57;2.75;;;1.67;;
57101;SDS011;42982;54.558;18.508;2022-08-11T21:10:23;4.03;;;1.70;;
57101;SDS011;42982;54.558;18.508;2022-08-11T21:11:45;4.32;;;1.73;;
57101;SDS011;42982;54.558;18.508;2022-08-11T21:13:07;2.60;;;1.40;;
57101;SDS011;42982;54.558;18.508;2022-08-11T21:14:29;2.33;;;1.63;;
57101;SDS011;42982;54.558;18.508;2022-08-11T21:16:01;2.83;;;1.63;;
57101;SDS011;42982;54.558;18.508;2022-08-11T21:17:25;5.30;;;2.80;;
57101;SDS011;42982;54.558;18.508;2022-08-11T21:19:55;4.13;;;1.85;;
57101;SDS011;42982;54.558;18.508;2022-08-11T21:21:05;5.90;;;2.50;;
57101;SDS011;42982;54.558;18.508;2022-08-11T21:22:33;5.05;;;2.53;;
57101;SDS011;42982;54.558;18.508;2022-08-11T21:24:01;5.35;;;2.78;;
57101;SDS011;42982;54.558;18.508;2022-08-11T21:25:23;7.18;;;2.75;;
57101;SDS011;42982;54.558;18.508;2022-08-11T21:26:47;3.92;;;1.95;;
57101;SDS011;42982;54.558;18.508;2022-08-11T21:28:08;3.92;;;1.85;;
57101;SDS011;42982;54.558;18.508;2022-08-11T21:29:34;3.90;;;1.85;;
57101;SDS011;42982;54.558;18.508;2022-08-11T21:30:58;3.42;;;1.98;;
57101;SDS011;42982;54.558;18.508;2022-08-11T21:32:22;3.90;;;2.00;;
57101;SDS011;42982;54.558;18.508;2022-08-11T21:33:44;1.92;;;1.40;;
57101;SDS011;42982;54.558;18.508;2022-08-11T21:35:08;3.78;;;2.00;;
57101;SDS011;42982;54.558;18.508;2022-08-11T21:36:30;3.75;;;1.70;;
57101;SDS011;42982;54.558;18.508;2022-08-11T21:37:54;3.22;;;1.52;;
57101;SDS011;42982;54.558;18.508;2022-08-11T21:39:18;2.13;;;1.42;;
57101;SDS011;42982;54.558;18.508;2022-08-11T21:40:41;2.78;;;1.60;;
57101;SDS011;42982;54.558;18.508;2022-08-11T21:42:05;2.85;;;1.30;;
57101;SDS011;42982;54.558;18.508;2022-08-11T21:43:28;2.10;;;1.33;;
57101;SDS011;42982;54.558;18.508;2022-08-11T21:44:53;3.10;;;1.80;;
57101;SDS011;42982;54.558;18.508;2022-08-11T21:46:17;3.35;;;1.90;;
57101;SDS011;42982;54.558;18.508;2022-08-11T21:47:42;3.40;;;1.80;;
57101;SDS011;42982;54.558;18.508;2022-08-11T21:49:05;3.05;;;1.67;;
57101;SDS011;42982;54.558;18.508;2022-08-11T21:50:33;4.40;;;2.00;;
57101;SDS011;42982;54.558;18.508;2022-08-11T21:52:00;3.35;;;1.45;;
57101;SDS011;42982;54.558;18.508;2022-08-11T21:53:26;3.03;;;1.75;;
57101;SDS011;42982;54.558;18.508;2022-08-11T21:54:52;3.60;;;1.75;;
57101;SDS011;42982;54.558;18.508;2022-08-11T21:56:20;3.28;;;1.58;;
57101;SDS011;42982;54.558;18.508;2022-08-11T21:57:44;3.53;;;1.80;;
57101;SDS011;42982;54.558;18.508;2022-08-11T21:59:08;2.58;;;1.58;;
57101;SDS011;42982;54.558;18.508;2022-08-11T22:00:31;3.25;;;1.60;;
57101;SDS011;42982;54.558;18.508;2022-08-11T22:01:55;3.70;;;1.70;;
57101;SDS011;42982;54.558;18.508;2022-08-11T22:03:18;7.85;;;1.70;;
57101;SDS011;42982;54.558;18.508;2022-08-11T22:04:42;2.78;;;1.83;;
57101;SDS011;42982;54.558;18.508;2022-08-11T22:06:04;5.32;;;1.83;;
57101;SDS011;42982;54.558;18.508;2022-08-11T22:07:25;2.08;;;1.52;;
57101;SDS011;42982;54.558;18.508;2022-08-11T22:08:48;3.38;;;1.90;;
57101;SDS011;42982;54.558;18.508;2022-08-11T22:10:10;6.50;;;2.05;;
57101;SDS011;42982;54.558;18.508;2022-08-11T22:11:34;3.58;;;1.85;;
57101;SDS011;42982;54.558;18.508;2022-08-11T22:12:55;4.03;;;1.85;;
57101;SDS011;42982;54.558;18.508;2022-08-11T22:14:16;2.30;;;1.55;;
57101;SDS011;42982;54.558;18.508;2022-08-11T22:15:39;3.10;;;1.85;;
57101;SDS011;42982;54.558;18.508;2022-08-11T22:17:01;3.75;;;2.00;;
57101;SDS011;42982;54.558;18.508;2022-08-11T22:18:24;3.92;;;2.00;;
57101;SDS011;42982;54.558;18.508;2022-08-11T22:19:44;3.03;;;1.80;;
57101;SDS011;42982;54.558;18.508;2022-08-11T22:21:09;3.13;;;1.85;;
57101;SDS011;42982;54.558;18.508;2022-08-11T22:22:33;6.68;;;1.92;;
57101;SDS011;42982;54.558;18.508;2022-08-11T22:23:56;3.30;;;1.63;;
57101;SDS011;42982;54.558;18.508;2022-08-11T22:25:19;5.38;;;1.90;;
57101;SDS011;42982;54.558;18.508;2022-08-11T22:26:44;2.10;;;1.65;;
57101;SDS011;42982;54.558;18.508;2022-08-11T22:28:07;4.03;;;1.80;;
57101;SDS011;42982;54.558;18.508;2022-08-11T22:29:28;2.95;;;1.75;;
57101;SDS011;42982;54.558;18.508;2022-08-11T22:30:49;3.22;;;1.90;;
57101;SDS011;42982;54.558;18.508;2022-08-11T22:32:11;4.32;;;1.83;;
57101;SDS011;42982;54.558;18.508;2022-08-11T22:33:31;3.33;;;2.03;;
57101;SDS011;42982;54.558;18.508;2022-08-11T22:34:55;3.72;;;2.15;;
57101;SDS011;42982;54.558;18.508;2022-08-11T22:36:19;4.38;;;1.98;;
57101;SDS011;42982;54.558;18.508;2022-08-11T22:37:45;4.63;;;1.92;;
57101;SDS011;42982;54.558;18.508;2022-08-11T22:39:09;8.63;;;2.50;;
57101;SDS011;42982;54.558;18.508;2022-08-11T22:40:35;6.88;;;2.35;;
57101;SDS011;42982;54.558;18.508;2022-08-11T22:42:01;5.15;;;1.85;;
57101;SDS011;42982;54.558;18.508;2022-08-11T22:43:21;5.85;;;2.10;;
57101;SDS011;42982;54.558;18.508;2022-08-11T22:44:42;3.65;;;2.10;;
57101;SDS011;42982;54.558;18.508;2022-08-11T22:46:04;4.57;;;2.28;;
57101;SDS011;42982;54.558;18.508;2022-08-11T22:47:25;3.92;;;2.17;;
57101;SDS011;42982;54.558;18.508;2022-08-11T22:48:47;4.05;;;2.28;;
57101;SDS011;42982;54.558;18.508;2022-08-11T22:50:12;5.57;;;2.28;;
57101;SDS011;42982;54.558;18.508;2022-08-11T22:51:33;5.45;;;2.28;;
57101;SDS011;42982;54.558;18.508;2022-08-11T22:52:55;6.97;;;2.40;;
57101;SDS011;42982;54.558;18.508;2022-08-11T22:54:18;4.28;;;2.20;;
57101;SDS011;42982;54.558;18.508;2022-08-11T22:55:43;3.53;;;2.25;;
57101;SDS011;42982;54.558;18.508;2022-08-11T22:57:04;4.93;;;2.40;;
57101;SDS011;42982;54.558;18.508;2022-08-11T22:58:28;7.90;;;2.88;;
57101;SDS011;42982;54.558;18.508;2022-08-11T22:59:49;4.32;;;2.30;;
57101;SDS011;42982;54.558;18.508;2022-08-11T23:01:14;8.23;;;2.70;;
57101;SDS011;42982;54.558;18.508;2022-08-11T23:02:36;4.93;;;2.65;;
57101;SDS011;42982;54.558;18.508;2022-08-11T23:04:01;4.50;;;2.63;;
57101;SDS011;42982;54.558;18.508;2022-08-11T23:05:23;3.40;;;2.40;;
57101;SDS011;42982;54.558;18.508;2022-08-11T23:06:44;6.07;;;2.33;;
57101;SDS011;42982;54.558;18.508;2022-08-11T23:08:05;4.78;;;2.20;;
57101;SDS011;42982;54.558;18.508;2022-08-11T23:09:26;7.47;;;2.78;;
57101;SDS011;42982;54.558;18.508;2022-08-11T23:10:47;9.65;;;2.55;;
57101;SDS011;42982;54.558;18.508;2022-08-11T23:12:11;6.82;;;2.72;;
57101;SDS011;42982;54.558;18.508;2022-08-11T23:13:32;5.90;;;2.80;;
57101;SDS011;42982;54.558;18.508;2022-08-11T23:14:55;4.78;;;2.88;;
57101;SDS011;42982;54.558;18.508;2022-08-11T23:16:18;6.10;;;2.45;;
57101;SDS011;42982;54.558;18.508;2022-08-11T23:17:42;5.22;;;2.33;;
57101;SDS011;42982;54.558;18.508;2022-08-11T23:19:03;5.15;;;3.08;;
57101;SDS011;42982;54.558;18.508;2022-08-11T23:20:23;5.82;;;2.97;;
57101;SDS011;42982;54.558;18.508;2022-08-11T23:21:47;6.60;;;2.85;;
57101;SDS011;42982;54.558;18.508;2022-08-11T23:23:10;4.35;;;2.60;;
57101;SDS011;42982;54.558;18.508;2022-08-11T23:24:35;8.52;;;2.38;;
57101;SDS011;42982;54.558;18.508;2022-08-11T23:25:57;8.07;;;2.60;;
57101;SDS011;42982;54.558;18.508;2022-08-11T23:27:19;6.63;;;2.60;;
57101;SDS011;42982;54.558;18.508;2022-08-11T23:28:42;7.30;;;2.80;;
57101;SDS011;42982;54.558;18.508;2022-08-11T23:30:03;5.78;;;2.40;;
57101;SDS011;42982;54.558;18.508;2022-08-11T23:31:24;3.90;;;2.65;;
57101;SDS011;42982;54.558;18.508;2022-08-11T23:32:47;5.28;;;2.50;;
57101;SDS011;42982;54.558;18.508;2022-08-11T23:34:16;9.90;;;3.38;;
57101;SDS011;42982;54.558;18.508;2022-08-11T23:35:40;9.10;;;3.28;;
57101;SDS011;42982;54.558;18.508;2022-08-11T23:37:03;6.50;;;2.80;;
57101;SDS011;42982;54.558;18.508;2022-08-11T23:38:24;5.93;;;2.55;;
57101;SDS011;42982;54.558;18.508;2022-08-11T23:39:45;7.45;;;2.78;;
57101;SDS011;42982;54.558;18.508;2022-08-11T23:41:05;7.38;;;3.00;;
57101;SDS011;42982;54.558;18.508;2022-08-11T23:42:26;5.50;;;2.58;;
57101;SDS011;42982;54.558;18.508;2022-08-11T23:43:46;12.05;;;3.08;;
57101;SDS011;42982;54.558;18.508;2022-08-11T23:45:13;5.60;;;2.83;;
57101;SDS011;42982;54.558;18.508;2022-08-11T23:46:41;6.05;;;3.03;;
57101;SDS011;42982;54.558;18.508;2022-08-11T23:48:03;5.97;;;2.97;;
57101;SDS011;42982;54.558;18.508;2022-08-11T23:49:26;5.78;;;2.83;;
57101;SDS011;42982;54.558;18.508;2022-08-11T23:50:48;9.10;;;3.33;;
57101;SDS011;42982;54.558;18.508;2022-08-11T23:52:12;4.55;;;2.80;;
57101;SDS011;42982;54.558;18.508;2022-08-11T23:53:33;6.75;;;2.72;;
57101;SDS011;42982;54.558;18.508;2022-08-11T23:54:57;9.85;;;3.20;;
57101;SDS011;42982;54.558;18.508;2022-08-11T23:56:18;5.63;;;2.75;;
57101;SDS011;42982;54.558;18.508;2022-08-11T23:57:42;4.57;;;2.58;;
57101;SDS011;42982;54.558;18.508;2022-08-11T23:59:02;4.75;;;2.80;;
